Terminal Aerodrome Forecast
Issued by NWS Wichita, KS

Home | Current Version | Previous Version | Text Only | Print | Product List | Glossary Off
Versions: 1 2 3 4 5 6 7 8 9 10 11 12 13

590
FTUS43 KICT 281126
TAFICT
TAF
KICT 281126Z 2812/2912 35008KT P6SM SKC
     FM281500 02012KT P6SM SKC
     FM290000 02005KT P6SM SKC=

USA.gov is the U.S. government's official web portal to all federal, state and local government web resources and services.